Time;durP1;ratioP1;P1;durP2;ratioP2;P2;SDS_P1;SDS_P2;PMS_P1;PMS_P2;Temp;Humidity;BMP_temperature;BMP_pressure;BME280_temperature;BME280_humidity;BME280_pressure;Samples;Min_cycle;Max_cycle;Signal;HPM_P1;HPM_P2
2021/10/06 01:11:49;;;;;;;4.38;0.82;;;;;;;;;;5136548;27;20863;-59
2021/10/06 01:14:19;;;;;;;3.92;1.02;;;;;;;;;;5133630;27;20392;-51
2021/10/06 01:16:50;;;;;;;3.22;1.00;;;;;;;;;;5133387;27;20046;-57
2021/10/06 01:19:24;;;;;;;3.40;0.70;;;;;;;;;;5119068;27;20042;-52
2021/10/06 01:21:55;;;;;;;6.35;0.70;;;;;;;;;;5124813;28;20047;-53
2021/10/06 01:24:28;;;;;;;4.20;1.25;;;;;;;;;;5126520;28;20105;-52
2021/10/06 01:26:58;;;;;;;;;;;;;;;;;;5108726;28;20125;-49
2021/10/06 01:29:28;;;;;;;3.85;0.80;;;;;;;;;;5125653;27;19926;-62
2021/10/06 01:31:58;;;;;;;4.28;1.30;;;;;;;;;;5125172;28;20043;-52
2021/10/06 01:34:28;;;;;;;3.30;0.90;;;;;;;;;;5125348;28;20035;-57
2021/10/06 01:36:58;;;;;;;6.78;1.27;;;;;;;;;;5106633;28;20049;-54
2021/10/06 01:39:27;;;;;;;4.03;0.80;;;;;;;;;;5111244;27;20044;-52
2021/10/06 01:41:58;;;;;;;3.92;1.02;;;;;;;;;;5094241;28;20040;-64
2021/10/06 01:44:27;;;;;;;3.47;0.85;;;;;;;;;;5113132;28;20043;-58
2021/10/06 01:46:57;;;;;;;2.28;0.95;;;;;;;;;;5108034;27;20093;-54
2021/10/06 01:49:30;;;;;;;2.67;0.70;;;;;;;;;;5113875;28;20039;-54
2021/10/06 01:52:01;;;;;;;3.70;0.73;;;;;;;;;;5114956;28;20385;-55
2021/10/06 01:54:31;;;;;;;2.75;0.80;;;;;;;;;;5117406;28;20036;-55
2021/10/06 01:57:00;;;;;;;2.30;0.75;;;;;;;;;;5121978;27;20480;-54
2021/10/06 01:59:31;;;;;;;6.13;1.08;;;;;;;;;;5118458;28;20039;-50
2021/10/06 02:02:00;;;;;;;5.80;0.70;;;;;;;;;;5100811;28;20309;-62
2021/10/06 02:04:30;;;;;;;4.20;0.82;;;;;;;;;;5118512;28;20101;-51
2021/10/06 02:07:00;;;;;;;3.75;0.80;;;;;;;;;;5111414;28;20032;-58
2021/10/06 02:09:30;;;;;;;5.47;1.50;;;;;;;;;;5094955;28;20423;-60
2021/10/06 02:12:01;;;;;;;3.47;0.77;;;;;;;;;;5118882;28;20050;-50
2021/10/06 02:14:31;;;;;;;2.20;0.50;;;;;;;;;;5089743;27;20040;-54
2021/10/06 02:17:02;;;;;;;3.45;0.65;;;;;;;;;;5105355;28;20055;-49
2021/10/06 02:19:39;;;;;;;2.60;0.98;;;;;;;;;;5056765;28;20458;-61
2021/10/06 02:22:10;;;;;;;4.13;0.80;;;;;;;;;;5033495;28;20065;-51
2021/10/06 02:24:41;;;;;;;2.70;0.75;;;;;;;;;;5044638;28;20060;-62
2021/10/06 02:27:11;;;;;;;3.42;0.80;;;;;;;;;;5042813;28;20047;-56
2021/10/06 02:29:40;;;;;;;1.92;0.63;;;;;;;;;;5041615;28;20048;-55
2021/10/06 02:32:10;;;;;;;1.67;0.50;;;;;;;;;;5041298;28;20060;-50
2021/10/06 02:34:40;;;;;;;1.50;0.60;;;;;;;;;;5042117;28;20423;-53
2021/10/06 02:37:10;;;;;;;4.85;1.55;;;;;;;;;;5049178;28;20053;-51
2021/10/06 02:39:40;;;;;;;3.05;0.88;;;;;;;;;;5047694;28;20049;-52
2021/10/06 02:42:11;;;;;;;1.98;0.63;;;;;;;;;;5043305;28;20049;-54
2021/10/06 02:44:40;;;;;;;4.03;0.52;;;;;;;;;;5044448;28;20049;-52
2021/10/06 02:47:10;;;;;;;1.45;0.50;;;;;;;;;;5042644;28;20056;-51
2021/10/06 02:49:40;;;;;;;2.30;0.70;;;;;;;;;;5028082;28;20411;-61
2021/10/06 02:52:10;;;;;;;2.13;0.60;;;;;;;;;;5044025;28;20399;-52
2021/10/06 02:54:40;;;;;;;2.67;0.55;;;;;;;;;;5042934;28;20041;-53
2021/10/06 02:57:10;;;;;;;2.25;1.08;;;;;;;;;;5070411;28;20051;-56
2021/10/06 02:59:40;;;;;;;2.22;0.95;;;;;;;;;;5108383;28;20496;-52
2021/10/06 03:02:10;;;;;;;2.20;0.75;;;;;;;;;;5092089;28;20047;-62
2021/10/06 03:04:40;;;;;;;5.22;0.90;;;;;;;;;;5115594;27;20492;-49
2021/10/06 03:07:10;;;;;;;1.95;0.80;;;;;;;;;;5091726;28;20393;-48
2021/10/06 03:09:40;;;;;;;2.13;1.02;;;;;;;;;;5101535;28;20474;-55
2021/10/06 03:12:11;;;;;;;2.53;1.30;;;;;;;;;;5101441;28;20043;-53
2021/10/06 03:14:40;;;;;;;1.48;0.52;;;;;;;;;;5110600;28;20365;-55
2021/10/06 03:17:10;;;;;;;2.33;0.85;;;;;;;;;;5102516;28;20587;-51
2021/10/06 03:19:40;;;;;;;1.90;0.90;;;;;;;;;;5103308;28;20062;-52
2021/10/06 03:22:10;;;;;;;3.47;1.10;;;;;;;;;;5098481;28;20031;-55
2021/10/06 03:24:40;;;;;;;3.20;1.20;;;;;;;;;;5093179;28;20416;-54
2021/10/06 03:27:10;;;;;;;2.97;1.20;;;;;;;;;;5090832;28;20043;-58
2021/10/06 03:29:39;;;;;;;3.03;1.00;;;;;;;;;;5100149;28;20066;-53
2021/10/06 03:32:10;;;;;;;2.78;1.13;;;;;;;;;;5078620;27;20373;-51
2021/10/06 03:34:40;;;;;;;3.38;1.10;;;;;;;;;;5110065;27;20046;-52
2021/10/06 03:37:11;;;;;;;3.85;1.50;;;;;;;;;;5110198;28;20048;-51
2021/10/06 03:39:41;;;;;;;3.50;1.63;;;;;;;;;;5111842;27;20500;-54
2021/10/06 03:42:11;;;;;;;4.60;1.50;;;;;;;;;;5103055;27;20504;-54
2021/10/06 03:44:40;;;;;;;6.75;1.70;;;;;;;;;;5093662;28;20056;-52
2021/10/06 03:47:10;;;;;;;3.63;1.67;;;;;;;;;;5101208;27;20043;-53
2021/10/06 03:49:40;;;;;;;4.47;2.35;;;;;;;;;;5104972;28;20044;-53
2021/10/06 03:52:10;;;;;;;5.65;2.00;;;;;;;;;;5100165;28;20702;-52
2021/10/06 03:54:39;;;;;;;9.63;3.30;;;;;;;;;;5077579;28;20048;-53
2021/10/06 03:57:09;;;;;;;7.40;2.67;;;;;;;;;;5096797;28;20046;-51
2021/10/06 03:59:39;;;;;;;7.95;3.13;;;;;;;;;;5110796;28;20039;-57
2021/10/06 04:02:10;;;;;;;6.82;3.78;;;;;;;;;;5110124;28;20043;-51
2021/10/06 04:04:40;;;;;;;9.70;3.58;;;;;;;;;;5113322;27;20600;-61
2021/10/06 04:07:10;;;;;;;8.85;2.95;;;;;;;;;;5103429;27;20044;-48
2021/10/06 04:09:40;;;;;;;8.65;3.65;;;;;;;;;;5090974;28;20052;-48
2021/10/06 04:12:10;;;;;;;10.23;4.25;;;;;;;;;;5096223;28;20043;-54
2021/10/06 04:14:40;;;;;;;9.90;4.00;;;;;;;;;;5078711;28;20044;-51
2021/10/06 04:17:15;;;;;;;8.98;3.90;;;;;;;;;;5097091;28;20040;-50
2021/10/06 04:19:46;;;;;;;8.38;3.22;;;;;;;;;;5085053;28;20062;-48
2021/10/06 04:22:17;;;;;;;9.52;3.60;;;;;;;;;;5082029;28;20055;-51
2021/10/06 04:24:48;;;;;;;10.23;3.63;;;;;;;;;;5083497;28;20039;-59
2021/10/06 04:27:23;;;;;;;7.82;3.67;;;;;;;;;;5091291;28;20047;-53
2021/10/06 04:29:54;;;;;;;7.82;2.85;;;;;;;;;;5096386;28;20063;-50
2021/10/06 04:32:26;;;;;;;7.70;3.05;;;;;;;;;;5094150;28;20047;-49
2021/10/06 04:35:05;;;;;;;9.48;3.55;;;;;;;;;;5083238;28;20040;-53
2021/10/06 04:37:36;;;;;;;10.95;4.13;;;;;;;;;;5082803;28;20047;-52
2021/10/06 04:40:07;;;;;;;7.38;3.58;;;;;;;;;;5086519;28;20058;-63
2021/10/06 04:42:37;;;;;;;8.05;3.60;;;;;;;;;;5071737;28;20036;-52
2021/10/06 04:45:08;;;;;;;7.63;2.85;;;;;;;;;;5085537;28;20039;-51
2021/10/06 04:47:39;;;;;;;;;;;;;;;;;;5103049;28;20369;-51
2021/10/06 04:50:09;;;;;;;10.52;2.70;;;;;;;;;;5082965;28;19923;-49
2021/10/06 04:52:39;;;;;;;5.90;2.97;;;;;;;;;;5086572;28;20050;-58
2021/10/06 04:55:09;;;;;;;9.57;2.50;;;;;;;;;;5099942;28;20047;-51
2021/10/06 04:57:39;;;;;;;7.47;2.35;;;;;;;;;;5100786;28;20040;-51
2021/10/06 05:00:09;;;;;;;6.65;2.40;;;;;;;;;;5101133;28;20492;-63
2021/10/06 05:02:39;;;;;;;5.75;2.67;;;;;;;;;;5102059;28;20046;-56
2021/10/06 05:05:09;;;;;;;9.63;3.05;;;;;;;;;;5080436;28;20032;-57
2021/10/06 05:07:39;;;;;;;8.07;2.33;;;;;;;;;;5082243;28;20048;-53
2021/10/06 05:10:09;;;;;;;5.50;2.30;;;;;;;;;;5105827;28;20051;-50
2021/10/06 05:12:39;;;;;;;6.82;2.10;;;;;;;;;;5108223;28;20054;-62
2021/10/06 05:15:09;;;;;;;7.53;2.30;;;;;;;;;;5108873;28;20039;-51
2021/10/06 05:17:39;;;;;;;6.40;2.20;;;;;;;;;;5115073;28;20050;-51
2021/10/06 05:20:08;;;;;;;6.22;2.28;;;;;;;;;;5110192;28;20044;-55
2021/10/06 05:22:38;;;;;;;8.85;2.20;;;;;;;;;;5110334;28;20043;-49
2021/10/06 05:25:08;;;;;;;6.00;2.20;;;;;;;;;;5109608;28;20036;-51
2021/10/06 05:27:38;;;;;;;7.28;2.53;;;;;;;;;;5110125;28;20055;-50
2021/10/06 05:30:10;;;;;;;5.57;1.92;;;;;;;;;;5109691;28;20050;-52
2021/10/06 05:32:40;;;;;;;5.50;2.15;;;;;;;;;;5109967;28;20452;-51
2021/10/06 05:35:13;;;;;;;6.10;1.92;;;;;;;;;;5110420;28;20039;-52
2021/10/06 05:37:43;;;;;;;4.25;1.90;;;;;;;;;;5118756;28;20047;-62
2021/10/06 05:40:16;;;;;;;5.43;2.17;;;;;;;;;;5108185;28;20032;-58
2021/10/06 05:42:46;;;;;;;6.03;1.73;;;;;;;;;;5108980;28;20051;-50
2021/10/06 05:45:16;;;;;;;6.80;2.10;;;;;;;;;;5109369;28;20036;-60
2021/10/06 05:47:45;;;;;;;4.78;1.80;;;;;;;;;;5091845;28;20062;-51
2021/10/06 05:50:18;;;;;;;6.22;3.15;;;;;;;;;;5110230;28;20047;-50
2021/10/06 05:52:47;;;;;;;6.18;2.13;;;;;;;;;;5109458;28;20043;-52
2021/10/06 05:55:17;;;;;;;4.93;2.00;;;;;;;;;;5109143;28;20520;-61
2021/10/06 05:57:53;;;;;;;4.38;1.80;;;;;;;;;;5093342;28;20054;-51
2021/10/06 06:00:22;;;;;;;5.47;1.77;;;;;;;;;;5112662;28;20044;-64
2021/10/06 06:02:52;;;;;;;5.72;2.22;;;;;;;;;;5116097;27;20051;-53
2021/10/06 06:05:24;;;;;;;5.32;1.90;;;;;;;;;;5119122;27;20061;-62
2021/10/06 06:07:56;;;;;;;5.47;1.77;;;;;;;;;;5113013;28;20040;-59
2021/10/06 06:10:25;;;;;;;5.10;2.30;;;;;;;;;;5113777;28;20052;-50
2021/10/06 06:12:56;;;;;;;4.63;1.75;;;;;;;;;;5094939;28;20402;-50
2021/10/06 06:15:26;;;;;;;4.20;2.08;;;;;;;;;;5113977;28;20051;-51
2021/10/06 06:17:56;;;;;;;5.45;2.45;;;;;;;;;;5114018;28;20044;-50
2021/10/06 06:20:26;;;;;;;5.78;2.08;;;;;;;;;;5112652;27;20378;-52
2021/10/06 06:22:57;;;;;;;4.68;2.13;;;;;;;;;;5103093;28;20420;-50
2021/10/06 06:25:27;;;;;;;4.30;1.92;;;;;;;;;;5093350;28;20402;-52
2021/10/06 06:27:57;;;;;;;8.63;2.78;;;;;;;;;;5112802;28;20050;-51
2021/10/06 06:30:27;;;;;;;4.75;2.10;;;;;;;;;;5111809;28;20042;-55
2021/10/06 06:32:56;;;;;;;5.05;2.28;;;;;;;;;;5118673;27;20043;-50
2021/10/06 06:35:27;;;;;;;6.88;2.08;;;;;;;;;;5101024;28;20488;-51
2021/10/06 06:37:57;;;;;;;5.85;2.13;;;;;;;;;;5112520;28;20043;-51
2021/10/06 06:40:26;;;;;;;4.97;2.35;;;;;;;;;;5097541;27;20401;-50
2021/10/06 06:42:56;;;;;;;4.80;1.90;;;;;;;;;;5122541;27;20036;-50
2021/10/06 06:45:27;;;;;;;5.18;2.35;;;;;;;;;;5113423;28;20032;-51
2021/10/06 06:47:56;;;;;;;5.43;2.42;;;;;;;;;;5113454;28;20042;-50
2021/10/06 06:50:54;;;;;;;4.65;2.03;;;;;;;;;;5113330;28;20046;-49
2021/10/06 06:53:28;;;;;;;5.88;2.08;;;;;;;;;;5113127;28;20042;-51
2021/10/06 06:55:59;;;;;;;5.05;1.70;;;;;;;;;;5113306;28;20047;-49
2021/10/06 06:58:28;;;;;;;7.13;2.05;;;;;;;;;;5113322;28;20043;-50
2021/10/06 07:00:58;;;;;;;6.88;2.33;;;;;;;;;;5113750;27;20393;-49
2021/10/06 07:03:28;;;;;;;5.47;2.20;;;;;;;;;;5105619;27;20039;-62
2021/10/06 07:05:58;;;;;;;6.50;1.88;;;;;;;;;;5133471;27;20044;-51
2021/10/06 07:08:28;;;;;;;6.95;2.22;;;;;;;;;;5123468;27;20051;-50
2021/10/06 07:10:57;;;;;;;5.68;2.13;;;;;;;;;;5110559;28;20043;-58
2021/10/06 07:13:31;;;;;;;5.07;2.00;;;;;;;;;;5111731;28;20047;-52
2021/10/06 07:16:01;;;;;;;8.38;2.10;;;;;;;;;;5110016;28;20056;-50
2021/10/06 07:18:31;;;;;;;7.53;2.30;;;;;;;;;;5111843;28;20035;-61
2021/10/06 07:21:00;;;;;;;4.88;2.25;;;;;;;;;;5112639;28;20046;-52
2021/10/06 07:23:30;;;;;;;5.20;2.20;;;;;;;;;;5112970;28;20046;-49
2021/10/06 07:26:00;;;;;;;6.68;2.33;;;;;;;;;;5112721;28;20042;-53
2021/10/06 07:28:30;;;;;;;5.13;2.33;;;;;;;;;;5094089;28;20048;-50
2021/10/06 07:31:00;;;;;;;5.95;2.75;;;;;;;;;;5112518;28;20047;-62
2021/10/06 07:33:30;;;;;;;7.60;2.53;;;;;;;;;;5112629;28;20047;-56
2021/10/06 07:36:03;;;;;;;5.43;2.67;;;;;;;;;;5112652;28;20039;-51
2021/10/06 07:38:32;;;;;;;6.32;2.75;;;;;;;;;;5094874;28;20039;-49
2021/10/06 07:41:03;;;;;;;8.07;2.70;;;;;;;;;;5112437;28;20054;-55
2021/10/06 07:43:33;;;;;;;6.85;2.67;;;;;;;;;;5112311;28;20043;-50
2021/10/06 07:46:04;;;;;;;6.50;2.83;;;;;;;;;;5112288;28;20035;-52
2021/10/06 07:48:34;;;;;;;6.18;2.38;;;;;;;;;;5112298;28;20047;-51
2021/10/06 07:51:05;;;;;;;5.78;2.63;;;;;;;;;;5118521;27;20039;-51
2021/10/06 07:53:35;;;;;;;8.40;2.70;;;;;;;;;;5110222;28;20040;-52
2021/10/06 07:56:05;;;;;;;5.93;2.53;;;;;;;;;;5109036;28;20048;-56
2021/10/06 07:58:35;;;;;;;7.63;2.95;;;;;;;;;;5111130;28;20035;-51
2021/10/06 08:01:05;;;;;;;6.28;2.80;;;;;;;;;;5110757;28;20035;-63
2021/10/06 08:03:36;;;;;;;5.65;2.70;;;;;;;;;;5110193;28;20397;-52
2021/10/06 08:06:08;;;;;;;6.63;2.65;;;;;;;;;;5110239;28;20043;-53
2021/10/06 08:08:38;;;;;;;6.13;3.00;;;;;;;;;;5118369;27;20046;-60
2021/10/06 08:11:09;;;;;;;8.18;2.80;;;;;;;;;;5109286;28;20417;-51
2021/10/06 08:13:39;;;;;;;5.63;2.60;;;;;;;;;;5110220;28;20039;-53
2021/10/06 08:16:09;;;;;;;5.63;2.60;;;;;;;;;;5109858;28;20035;-49
2021/10/06 08:18:40;;;;;;;7.00;2.67;;;;;;;;;;5108686;28;20117;-54
2021/10/06 08:21:10;;;;;;;7.32;2.70;;;;;;;;;;5109239;28;20051;-52
2021/10/06 08:23:40;;;;;;;6.53;2.75;;;;;;;;;;5109981;28;20397;-50
2021/10/06 08:26:11;;;;;;;5.80;2.55;;;;;;;;;;5108765;28;20063;-51
2021/10/06 08:28:41;;;;;;;8.00;2.75;;;;;;;;;;5107062;27;20047;-52
2021/10/06 08:31:11;;;;;;;7.55;3.58;;;;;;;;;;5109687;28;20054;-53
2021/10/06 08:33:40;;;;;;;8.35;2.70;;;;;;;;;;5091298;28;20054;-51
2021/10/06 08:36:10;;;;;;;7.07;3.03;;;;;;;;;;5109203;28;20702;-49
2021/10/06 08:38:40;;;;;;;6.60;2.80;;;;;;;;;;5101271;28;20066;-53
2021/10/06 08:41:10;;;;;;;5.55;2.50;;;;;;;;;;5110129;28;20043;-54
2021/10/06 08:43:42;;;;;;;7.15;2.58;;;;;;;;;;5109329;28;20040;-53
2021/10/06 08:46:13;;;;;;;7.07;2.63;;;;;;;;;;5109789;28;20042;-54
2021/10/06 08:48:42;;;;;;;5.45;2.40;;;;;;;;;;5109589;28;20477;-51
2021/10/06 08:51:13;;;;;;;6.05;2.20;;;;;;;;;;5109193;28;20039;-58
2021/10/06 08:53:50;;;;;;;6.68;2.30;;;;;;;;;;5090788;28;20051;-50
2021/10/06 08:56:25;;;;;;;4.35;2.25;;;;;;;;;;5109198;28;20036;-50
2021/10/06 08:58:56;;;;;;;6.07;2.78;;;;;;;;;;5111738;27;20035;-52
2021/10/06 09:01:29;;;;;;;6.38;3.05;;;;;;;;;;5124468;27;20104;-52
2021/10/06 09:04:05;;;;;;;6.88;2.58;;;;;;;;;;5108977;28;20035;-50
2021/10/06 09:06:38;;;;;;;7.38;2.17;;;;;;;;;;5109263;28;20421;-58
2021/10/06 09:09:20;;;;;;;5.13;2.30;;;;;;;;;;5108720;28;20040;-52
2021/10/06 09:11:52;;;;;;;4.13;1.85;;;;;;;;;;5100840;28;20051;-51
2021/10/06 09:14:23;;;;;;;6.03;2.42;;;;;;;;;;5113160;28;20043;-52
2021/10/06 09:17:10;;;;;;;5.00;1.90;;;;;;;;;;5109320;28;20039;-49
2021/10/06 09:19:43;;;;;;;4.70;2.10;;;;;;;;;;5109158;28;20040;-49
2021/10/06 09:22:27;;;;;;;4.97;1.80;;;;;;;;;;5108991;28;20043;-51
2021/10/06 09:25:03;;;;;;;4.90;2.05;;;;;;;;;;5109102;28;20043;-49
2021/10/06 09:27:39;;;;;;;6.57;2.20;;;;;;;;;;5108985;28;20473;-50
2021/10/06 09:30:12;;;;;;;4.35;2.00;;;;;;;;;;5108792;28;20050;-51
2021/10/06 09:32:46;;;;;;;4.97;2.17;;;;;;;;;;5112069;28;21173;-51
2021/10/06 09:35:19;;;;;;;4.70;1.67;;;;;;;;;;5113777;28;20560;-61
2021/10/06 09:37:52;;;;;;;5.47;2.03;;;;;;;;;;5123444;27;20042;-52
2021/10/06 09:40:28;;;;;;;4.85;1.98;;;;;;;;;;5115469;27;20039;-51
2021/10/06 09:43:04;;;;;;;6.57;1.90;;;;;;;;;;5123118;27;20701;-51
2021/10/06 09:45:36;;;;;;;5.45;2.75;;;;;;;;;;5114203;28;20042;-56
2021/10/06 09:48:09;;;;;;;5.38;2.00;;;;;;;;;;5112431;28;20040;-57
2021/10/06 09:50:48;;;;;;;6.32;2.55;;;;;;;;;;5087229;28;20044;-53
2021/10/06 09:53:23;;;;;;;4.07;2.20;;;;;;;;;;5093090;28;20513;-63
2021/10/06 09:55:53;;;;;;;4.78;1.98;;;;;;;;;;5112498;28;20032;-51
2021/10/06 09:58:23;;;;;;;8.05;2.25;;;;;;;;;;5124422;27;20036;-50
2021/10/06 10:00:56;;;;;;;5.53;2.15;;;;;;;;;;5118773;27;20050;-60
2021/10/06 10:03:28;;;;;;;9.27;2.50;;;;;;;;;;5112516;28;20039;-49
2021/10/06 10:05:59;;;;;;;5.05;2.25;;;;;;;;;;5113212;28;20040;-51
2021/10/06 10:08:30;;;;;;;6.53;2.47;;;;;;;;;;5114668;28;20051;-52
2021/10/06 10:11:00;;;;;;;6.43;2.30;;;;;;;;;;5114513;28;20044;-49
2021/10/06 10:13:30;;;;;;;6.65;1.83;;;;;;;;;;5114146;28;20039;-53
2021/10/06 10:16:00;;;;;;;7.13;2.13;;;;;;;;;;5114232;28;20381;-49
2021/10/06 10:18:33;;;;;;;3.85;1.38;;;;;;;;;;5112126;28;20043;-53
2021/10/06 10:21:04;;;;;;;4.55;1.90;;;;;;;;;;5112710;28;20042;-55
2021/10/06 10:23:36;;;;;;;3.60;1.50;;;;;;;;;;5112578;28;20036;-49
2021/10/06 10:26:07;;;;;;;5.00;1.92;;;;;;;;;;5112654;28;20035;-49
2021/10/06 10:28:41;;;;;;;5.25;1.60;;;;;;;;;;5112677;28;20035;-50
2021/10/06 10:31:14;;;;;;;6.47;2.17;;;;;;;;;;5112502;28;20046;-48
2021/10/06 10:33:48;;;;;;;5.47;1.90;;;;;;;;;;5106002;28;20035;-55
2021/10/06 10:36:34;;;;;;;6.38;2.00;;;;;;;;;;5114365;27;20031;-51
2021/10/06 10:39:25;;;;;;;6.43;2.00;;;;;;;;;;5119947;27;20050;-49
2021/10/06 10:41:57;;;;;;;6.15;1.50;;;;;;;;;;5120737;27;20069;-55
2021/10/06 10:44:37;;;;;;;7.53;2.03;;;;;;;;;;5126311;27;20035;-52
2021/10/06 10:47:08;;;;;;;3.65;1.60;;;;;;;;;;5122031;27;20141;-53
2021/10/06 10:49:42;;;;;;;5.63;1.95;;;;;;;;;;5112713;28;20039;-48
2021/10/06 10:52:15;;;;;;;4.45;1.67;;;;;;;;;;5112427;28;20515;-50
2021/10/06 10:54:47;;;;;;;4.32;1.70;;;;;;;;;;5109896;28;20493;-51
2021/10/06 10:57:33;;;;;;;5.43;1.88;;;;;;;;;;5109290;27;20047;-63
2021/10/06 11:00:04;;;;;;;5.40;1.75;;;;;;;;;;5104619;27;20042;-51
2021/10/06 11:02:40;;;;;;;5.18;2.28;;;;;;;;;;5093843;28;20043;-60
2021/10/06 11:05:15;;;;;;;4.20;2.00;;;;;;;;;;5095302;28;21189;-49
2021/10/06 11:07:52;;;;;;;7.32;2.33;;;;;;;;;;5111430;28;20051;-49
2021/10/06 11:10:31;;;;;;;5.68;1.80;;;;;;;;;;5111533;28;20047;-57
2021/10/06 11:13:05;;;;;;;5.10;1.95;;;;;;;;;;5111473;28;20043;-50
2021/10/06 11:15:36;;;;;;;5.80;1.83;;;;;;;;;;5110931;28;20043;-52
2021/10/06 11:18:15;;;;;;;5.88;1.98;;;;;;;;;;5118730;27;20038;-52
2021/10/06 11:20:48;;;;;;;;;;;;;;;;;;5111642;28;20038;-50
2021/10/06 11:23:31;;;;;;;5.35;2.05;;;;;;;;;;5101228;28;20374;-51
2021/10/06 11:26:10;;;;;;;6.72;2.42;;;;;;;;;;5092110;28;20039;-51
2021/10/06 11:28:52;;;;;;;6.05;1.75;;;;;;;;;;5111085;28;20035;-51
2021/10/06 11:31:30;;;;;;;8.20;2.10;;;;;;;;;;5110786;28;20051;-62
2021/10/06 11:34:03;;;;;;;7.07;1.95;;;;;;;;;;5110685;28;20043;-50
2021/10/06 11:36:34;;;;;;;6.35;2.67;;;;;;;;;;5110895;28;20397;-49
2021/10/06 11:39:08;;;;;;;7.13;2.17;;;;;;;;;;5117147;27;20101;-51
2021/10/06 11:41:44;;;;;;;6.72;1.73;;;;;;;;;;5113441;27;20032;-49
2021/10/06 11:44:27;;;;;;;5.50;2.38;;;;;;;;;;5110013;28;20044;-49
2021/10/06 11:47:03;;;;;;;4.80;1.42;;;;;;;;;;5095961;27;20051;-58
2021/10/06 11:49:36;;;;;;;4.43;1.65;;;;;;;;;;5104732;27;20069;-62
2021/10/06 11:52:08;;;;;;;5.57;1.77;;;;;;;;;;5101470;28;20500;-51
2021/10/06 11:54:39;;;;;;;6.53;1.90;;;;;;;;;;5099468;28;20044;-52
2021/10/06 11:57:13;;;;;;;4.43;1.73;;;;;;;;;;5103132;28;20047;-55
2021/10/06 11:59:45;;;;;;;9.18;2.08;;;;;;;;;;5101098;28;20039;-50
2021/10/06 12:02:17;;;;;;;4.65;1.90;;;;;;;;;;5101731;27;20041;-58
2021/10/06 12:04:51;;;;;;;;;;;;;;;;;;5098864;27;20044;-60
2021/10/06 12:07:24;;;;;;;8.77;2.42;;;;;;;;;;5102376;28;19920;-54
